sensor_id;sensor_type;location;lat;lon;timestamp;P1;durP1;ratioP1;P2;durP2;ratioP2
44955;SDS011;30686;52.512;-1.188;2022-12-20T00:00:47;2.15;;;0.90;;
44955;SDS011;30686;52.512;-1.188;2022-12-20T00:03:14;1.27;;;0.63;;
44955;SDS011;30686;52.512;-1.188;2022-12-20T00:05:40;0.88;;;0.60;;
44955;SDS011;30686;52.512;-1.188;2022-12-20T00:08:07;1.30;;;0.73;;
44955;SDS011;30686;52.512;-1.188;2022-12-20T00:10:35;1.92;;;0.80;;
44955;SDS011;30686;52.512;-1.188;2022-12-20T00:13:01;4.90;;;1.25;;
44955;SDS011;30686;52.512;-1.188;2022-12-20T00:15:27;1.65;;;0.80;;
44955;SDS011;30686;52.512;-1.188;2022-12-20T00:17:53;2.30;;;0.73;;
44955;SDS011;30686;52.512;-1.188;2022-12-20T00:20:20;1.60;;;0.73;;
44955;SDS011;30686;52.512;-1.188;2022-12-20T00:22:46;0.85;;;0.70;;
44955;SDS011;30686;52.512;-1.188;2022-12-20T00:25:12;0.50;;;0.50;;
44955;SDS011;30686;52.512;-1.188;2022-12-20T00:27:39;1.25;;;0.60;;
44955;SDS011;30686;52.512;-1.188;2022-12-20T00:30:05;1.05;;;0.70;;
44955;SDS011;30686;52.512;-1.188;2022-12-20T00:32:31;1.42;;;0.73;;
44955;SDS011;30686;52.512;-1.188;2022-12-20T00:34:57;1.77;;;0.68;;
44955;SDS011;30686;52.512;-1.188;2022-12-20T00:37:24;1.50;;;0.70;;
44955;SDS011;30686;52.512;-1.188;2022-12-20T00:39:50;1.35;;;0.60;;
44955;SDS011;30686;52.512;-1.188;2022-12-20T00:42:19;1.15;;;0.80;;
44955;SDS011;30686;52.512;-1.188;2022-12-20T00:44:46;1.00;;;0.47;;
44955;SDS011;30686;52.512;-1.188;2022-12-20T00:47:12;3.17;;;0.70;;
44955;SDS011;30686;52.512;-1.188;2022-12-20T00:49:39;2.33;;;0.60;;
44955;SDS011;30686;52.512;-1.188;2022-12-20T00:52:05;1.05;;;0.70;;
44955;SDS011;30686;52.512;-1.188;2022-12-20T00:54:31;0.98;;;0.68;;
44955;SDS011;30686;52.512;-1.188;2022-12-20T00:56:57;2.45;;;0.77;;
44955;SDS011;30686;52.512;-1.188;2022-12-20T00:59:23;1.85;;;0.70;;
44955;SDS011;30686;52.512;-1.188;2022-12-20T01:01:50;3.05;;;0.77;;
44955;SDS011;30686;52.512;-1.188;2022-12-20T01:04:16;2.78;;;1.02;;
44955;SDS011;30686;52.512;-1.188;2022-12-20T01:06:42;1.77;;;0.80;;
44955;SDS011;30686;52.512;-1.188;2022-12-20T01:09:09;2.42;;;0.70;;
44955;SDS011;30686;52.512;-1.188;2022-12-20T01:11:38;1.45;;;0.88;;
44955;SDS011;30686;52.512;-1.188;2022-12-20T01:14:11;0.70;;;0.70;;
44955;SDS011;30686;52.512;-1.188;2022-12-20T01:16:38;2.40;;;0.75;;
44955;SDS011;30686;52.512;-1.188;2022-12-20T01:19:06;2.08;;;0.63;;
44955;SDS011;30686;52.512;-1.188;2022-12-20T01:21:32;0.98;;;0.70;;
44955;SDS011;30686;52.512;-1.188;2022-12-20T01:23:59;2.50;;;0.70;;
44955;SDS011;30686;52.512;-1.188;2022-12-20T01:26:26;1.75;;;0.80;;
44955;SDS011;30686;52.512;-1.188;2022-12-20T01:28:54;0.77;;;0.60;;
44955;SDS011;30686;52.512;-1.188;2022-12-20T01:31:20;0.75;;;0.60;;
44955;SDS011;30686;52.512;-1.188;2022-12-20T01:33:47;0.55;;;0.50;;
44955;SDS011;30686;52.512;-1.188;2022-12-20T01:36:15;0.30;;;0.30;;
44955;SDS011;30686;52.512;-1.188;2022-12-20T01:38:41;1.73;;;0.60;;
44955;SDS011;30686;52.512;-1.188;2022-12-20T01:41:08;1.48;;;0.60;;
44955;SDS011;30686;52.512;-1.188;2022-12-20T01:46:14;3.97;;;0.85;;
44955;SDS011;30686;52.512;-1.188;2022-12-20T01:48:41;0.90;;;0.65;;
44955;SDS011;30686;52.512;-1.188;2022-12-20T01:51:08;0.95;;;0.65;;
44955;SDS011;30686;52.512;-1.188;2022-12-20T01:53:35;2.15;;;0.70;;
44955;SDS011;30686;52.512;-1.188;2022-12-20T01:56:02;3.10;;;0.77;;
44955;SDS011;30686;52.512;-1.188;2022-12-20T01:58:32;5.25;;;1.20;;
44955;SDS011;30686;52.512;-1.188;2022-12-20T02:01:00;7.53;;;0.90;;
44955;SDS011;30686;52.512;-1.188;2022-12-20T02:03:26;0.98;;;0.50;;
44955;SDS011;30686;52.512;-1.188;2022-12-20T02:05:54;2.17;;;0.73;;
44955;SDS011;30686;52.512;-1.188;2022-12-20T02:08:21;3.08;;;0.85;;
44955;SDS011;30686;52.512;-1.188;2022-12-20T02:15:58;2.67;;;0.77;;
44955;SDS011;30686;52.512;-1.188;2022-12-20T02:34:27;3.90;;;1.05;;
44955;SDS011;30686;52.512;-1.188;2022-12-20T02:36:55;5.05;;;1.10;;
44955;SDS011;30686;52.512;-1.188;2022-12-20T02:39:21;3.30;;;0.75;;
44955;SDS011;30686;52.512;-1.188;2022-12-20T02:41:50;1.73;;;0.85;;
44955;SDS011;30686;52.512;-1.188;2022-12-20T02:44:18;6.00;;;1.25;;
44955;SDS011;30686;52.512;-1.188;2022-12-20T02:47:08;2.58;;;0.77;;
44955;SDS011;30686;52.512;-1.188;2022-12-20T02:49:36;1.75;;;0.95;;
44955;SDS011;30686;52.512;-1.188;2022-12-20T02:52:05;1.17;;;0.80;;
44955;SDS011;30686;52.512;-1.188;2022-12-20T02:54:35;3.90;;;0.75;;
44955;SDS011;30686;52.512;-1.188;2022-12-20T02:57:46;3.33;;;0.65;;
44955;SDS011;30686;52.512;-1.188;2022-12-20T02:59:56;1.55;;;0.77;;
44955;SDS011;30686;52.512;-1.188;2022-12-20T03:02:25;0.57;;;0.52;;
44955;SDS011;30686;52.512;-1.188;2022-12-20T03:04:52;1.83;;;0.50;;
44955;SDS011;30686;52.512;-1.188;2022-12-20T03:07:20;3.85;;;2.03;;
44955;SDS011;30686;52.512;-1.188;2022-12-20T03:09:47;0.75;;;0.60;;
44955;SDS011;30686;52.512;-1.188;2022-12-20T03:12:13;0.90;;;0.73;;
44955;SDS011;30686;52.512;-1.188;2022-12-20T03:14:42;0.57;;;0.57;;
44955;SDS011;30686;52.512;-1.188;2022-12-20T03:17:09;0.70;;;0.70;;
44955;SDS011;30686;52.512;-1.188;2022-12-20T03:19:35;3.47;;;0.60;;
44955;SDS011;30686;52.512;-1.188;2022-12-20T03:22:01;0.70;;;0.70;;
44955;SDS011;30686;52.512;-1.188;2022-12-20T03:24:27;1.83;;;0.73;;
44955;SDS011;30686;52.512;-1.188;2022-12-20T03:26:54;6.13;;;0.80;;
44955;SDS011;30686;52.512;-1.188;2022-12-20T03:29:20;0.77;;;0.75;;
44955;SDS011;30686;52.512;-1.188;2022-12-20T03:31:49;1.05;;;0.80;;
44955;SDS011;30686;52.512;-1.188;2022-12-20T03:34:15;1.08;;;0.90;;
44955;SDS011;30686;52.512;-1.188;2022-12-20T03:36:41;1.25;;;0.88;;
44955;SDS011;30686;52.512;-1.188;2022-12-20T03:39:07;1.15;;;0.77;;
44955;SDS011;30686;52.512;-1.188;2022-12-20T03:41:34;1.63;;;0.90;;
44955;SDS011;30686;52.512;-1.188;2022-12-20T03:44:00;3.17;;;1.20;;
44955;SDS011;30686;52.512;-1.188;2022-12-20T03:46:26;1.00;;;0.80;;
44955;SDS011;30686;52.512;-1.188;2022-12-20T03:48:52;0.57;;;0.50;;
44955;SDS011;30686;52.512;-1.188;2022-12-20T03:51:21;0.52;;;0.52;;
44955;SDS011;30686;52.512;-1.188;2022-12-20T03:53:47;0.95;;;0.70;;
44955;SDS011;30686;52.512;-1.188;2022-12-20T03:56:13;1.05;;;0.80;;
44955;SDS011;30686;52.512;-1.188;2022-12-20T03:58:39;0.80;;;0.63;;
44955;SDS011;30686;52.512;-1.188;2022-12-20T04:01:19;2.38;;;1.15;;
44955;SDS011;30686;52.512;-1.188;2022-12-20T04:03:48;1.08;;;0.68;;
44955;SDS011;30686;52.512;-1.188;2022-12-20T04:06:15;0.77;;;0.73;;
44955;SDS011;30686;52.512;-1.188;2022-12-20T04:08:42;0.57;;;0.52;;
44955;SDS011;30686;52.512;-1.188;2022-12-20T04:11:08;1.77;;;0.70;;
44955;SDS011;30686;52.512;-1.188;2022-12-20T04:13:59;0.55;;;0.55;;
44955;SDS011;30686;52.512;-1.188;2022-12-20T04:16:26;1.52;;;0.50;;
44955;SDS011;30686;52.512;-1.188;2022-12-20T04:18:52;3.35;;;0.80;;
44955;SDS011;30686;52.512;-1.188;2022-12-20T04:21:29;2.92;;;0.85;;
44955;SDS011;30686;52.512;-1.188;2022-12-20T04:23:58;1.20;;;0.75;;
44955;SDS011;30686;52.512;-1.188;2022-12-20T04:26:25;1.88;;;0.73;;
44955;SDS011;30686;52.512;-1.188;2022-12-20T04:28:53;1.15;;;0.60;;
44955;SDS011;30686;52.512;-1.188;2022-12-20T04:31:19;0.63;;;0.63;;
44955;SDS011;30686;52.512;-1.188;2022-12-20T04:33:46;1.20;;;0.50;;
44955;SDS011;30686;52.512;-1.188;2022-12-20T04:36:13;2.20;;;0.70;;
44955;SDS011;30686;52.512;-1.188;2022-12-20T04:38:39;4.25;;;0.90;;
44955;SDS011;30686;52.512;-1.188;2022-12-20T04:41:05;1.13;;;0.68;;
44955;SDS011;30686;52.512;-1.188;2022-12-20T04:43:32;4.88;;;0.93;;
44955;SDS011;30686;52.512;-1.188;2022-12-20T04:46:01;1.48;;;0.80;;
44955;SDS011;30686;52.512;-1.188;2022-12-20T04:48:27;3.33;;;0.95;;
44955;SDS011;30686;52.512;-1.188;2022-12-20T04:50:53;1.65;;;0.90;;
44955;SDS011;30686;52.512;-1.188;2022-12-20T04:53:20;0.65;;;0.60;;
44955;SDS011;30686;52.512;-1.188;2022-12-20T04:56:06;0.70;;;0.60;;
44955;SDS011;30686;52.512;-1.188;2022-12-20T04:58:32;0.55;;;0.55;;
44955;SDS011;30686;52.512;-1.188;2022-12-20T05:00:58;2.13;;;0.75;;
44955;SDS011;30686;52.512;-1.188;2022-12-20T05:03:25;2.75;;;0.70;;
44955;SDS011;30686;52.512;-1.188;2022-12-20T05:05:52;1.27;;;0.70;;
44955;SDS011;30686;52.512;-1.188;2022-12-20T05:08:18;1.25;;;0.63;;
44955;SDS011;30686;52.512;-1.188;2022-12-20T05:10:44;1.77;;;0.80;;
44955;SDS011;30686;52.512;-1.188;2022-12-20T05:13:10;3.40;;;0.80;;
44955;SDS011;30686;52.512;-1.188;2022-12-20T05:15:37;1.25;;;0.77;;
44955;SDS011;30686;52.512;-1.188;2022-12-20T05:18:03;3.60;;;1.10;;
44955;SDS011;30686;52.512;-1.188;2022-12-20T05:20:30;2.47;;;0.80;;
44955;SDS011;30686;52.512;-1.188;2022-12-20T05:22:56;1.02;;;0.68;;
44955;SDS011;30686;52.512;-1.188;2022-12-20T05:25:43;2.60;;;0.80;;
44955;SDS011;30686;52.512;-1.188;2022-12-20T05:28:28;4.95;;;1.00;;
44955;SDS011;30686;52.512;-1.188;2022-12-20T05:30:55;0.80;;;0.63;;
44955;SDS011;30686;52.512;-1.188;2022-12-20T05:33:21;0.82;;;0.80;;
44955;SDS011;30686;52.512;-1.188;2022-12-20T05:35:47;1.95;;;0.80;;
44955;SDS011;30686;52.512;-1.188;2022-12-20T05:38:14;3.60;;;0.90;;
44955;SDS011;30686;52.512;-1.188;2022-12-20T05:40:40;1.80;;;0.70;;
44955;SDS011;30686;52.512;-1.188;2022-12-20T05:43:07;6.03;;;1.58;;
44955;SDS011;30686;52.512;-1.188;2022-12-20T05:45:33;3.00;;;0.90;;
44955;SDS011;30686;52.512;-1.188;2022-12-20T05:47:59;1.48;;;0.75;;
44955;SDS011;30686;52.512;-1.188;2022-12-20T05:50:26;2.83;;;1.00;;
44955;SDS011;30686;52.512;-1.188;2022-12-20T05:52:52;1.35;;;0.90;;
44955;SDS011;30686;52.512;-1.188;2022-12-20T05:55:18;1.98;;;0.88;;
44955;SDS011;30686;52.512;-1.188;2022-12-20T05:57:44;3.83;;;0.93;;
44955;SDS011;30686;52.512;-1.188;2022-12-20T06:00:12;2.63;;;0.88;;
44955;SDS011;30686;52.512;-1.188;2022-12-20T06:02:39;3.35;;;0.82;;
44955;SDS011;30686;52.512;-1.188;2022-12-20T06:05:05;3.20;;;1.30;;
44955;SDS011;30686;52.512;-1.188;2022-12-20T06:07:31;2.78;;;1.00;;
44955;SDS011;30686;52.512;-1.188;2022-12-20T06:09:58;0.90;;;0.70;;
44955;SDS011;30686;52.512;-1.188;2022-12-20T06:12:24;2.10;;;0.80;;
44955;SDS011;30686;52.512;-1.188;2022-12-20T06:14:50;3.20;;;1.15;;
44955;SDS011;30686;52.512;-1.188;2022-12-20T06:17:17;2.90;;;1.13;;
44955;SDS011;30686;52.512;-1.188;2022-12-20T06:19:44;3.53;;;0.85;;
44955;SDS011;30686;52.512;-1.188;2022-12-20T06:22:10;1.88;;;0.90;;
44955;SDS011;30686;52.512;-1.188;2022-12-20T06:24:37;5.00;;;1.00;;
44955;SDS011;30686;52.512;-1.188;2022-12-20T06:27:03;5.13;;;1.08;;
44955;SDS011;30686;52.512;-1.188;2022-12-20T06:29:31;3.78;;;1.10;;
44955;SDS011;30686;52.512;-1.188;2022-12-20T06:31:58;2.33;;;1.00;;
44955;SDS011;30686;52.512;-1.188;2022-12-20T06:34:24;1.67;;;0.80;;
44955;SDS011;30686;52.512;-1.188;2022-12-20T06:36:50;7.13;;;1.02;;
44955;SDS011;30686;52.512;-1.188;2022-12-20T06:39:16;3.80;;;2.17;;
44955;SDS011;30686;52.512;-1.188;2022-12-20T06:41:43;1.63;;;0.95;;
44955;SDS011;30686;52.512;-1.188;2022-12-20T06:44:09;3.88;;;1.00;;
44955;SDS011;30686;52.512;-1.188;2022-12-20T06:46:35;2.15;;;0.93;;
44955;SDS011;30686;52.512;-1.188;2022-12-20T06:49:04;0.90;;;0.60;;
44955;SDS011;30686;52.512;-1.188;2022-12-20T06:51:30;4.55;;;0.90;;
44955;SDS011;30686;52.512;-1.188;2022-12-20T06:53:56;3.72;;;0.88;;
44955;SDS011;30686;52.512;-1.188;2022-12-20T06:56:22;2.33;;;0.80;;
44955;SDS011;30686;52.512;-1.188;2022-12-20T06:58:49;3.25;;;1.20;;
44955;SDS011;30686;52.512;-1.188;2022-12-20T07:01:17;4.32;;;1.00;;
44955;SDS011;30686;52.512;-1.188;2022-12-20T07:03:44;1.90;;;0.82;;
44955;SDS011;30686;52.512;-1.188;2022-12-20T07:06:10;0.98;;;0.70;;
44955;SDS011;30686;52.512;-1.188;2022-12-20T07:08:36;5.82;;;1.48;;
44955;SDS011;30686;52.512;-1.188;2022-12-20T07:11:03;3.85;;;1.08;;
44955;SDS011;30686;52.512;-1.188;2022-12-20T07:13:30;4.32;;;1.10;;
44955;SDS011;30686;52.512;-1.188;2022-12-20T07:15:56;3.08;;;0.90;;
44955;SDS011;30686;52.512;-1.188;2022-12-20T07:18:23;1.80;;;0.70;;
44955;SDS011;30686;52.512;-1.188;2022-12-20T07:20:49;3.25;;;1.05;;
44955;SDS011;30686;52.512;-1.188;2022-12-20T07:23:19;1.23;;;0.63;;
44955;SDS011;30686;52.512;-1.188;2022-12-20T07:25:54;3.28;;;1.27;;
44955;SDS011;30686;52.512;-1.188;2022-12-20T07:28:21;6.05;;;1.23;;
44955;SDS011;30686;52.512;-1.188;2022-12-20T07:30:59;2.08;;;0.93;;
44955;SDS011;30686;52.512;-1.188;2022-12-20T07:33:25;4.72;;;1.20;;
44955;SDS011;30686;52.512;-1.188;2022-12-20T07:35:58;2.70;;;1.40;;
44955;SDS011;30686;52.512;-1.188;2022-12-20T07:38:24;2.75;;;1.25;;
44955;SDS011;30686;52.512;-1.188;2022-12-20T07:40:51;2.55;;;1.15;;
44955;SDS011;30686;52.512;-1.188;2022-12-20T07:43:17;1.83;;;0.90;;
44955;SDS011;30686;52.512;-1.188;2022-12-20T07:45:44;0.98;;;0.60;;
44955;SDS011;30686;52.512;-1.188;2022-12-20T07:48:14;3.75;;;1.30;;
44955;SDS011;30686;52.512;-1.188;2022-12-20T07:50:40;3.15;;;1.08;;
44955;SDS011;30686;52.512;-1.188;2022-12-20T07:53:06;3.85;;;1.00;;
44955;SDS011;30686;52.512;-1.188;2022-12-20T07:55:34;5.97;;;1.00;;
44955;SDS011;30686;52.512;-1.188;2022-12-20T07:58:02;5.88;;;1.25;;
44955;SDS011;30686;52.512;-1.188;2022-12-20T08:00:30;15.15;;;1.25;;
44955;SDS011;30686;52.512;-1.188;2022-12-20T08:03:16;1.83;;;0.77;;
44955;SDS011;30686;52.512;-1.188;2022-12-20T08:05:45;4.28;;;1.10;;
44955;SDS011;30686;52.512;-1.188;2022-12-20T08:08:12;6.93;;;2.00;;
44955;SDS011;30686;52.512;-1.188;2022-12-20T08:10:38;3.88;;;0.85;;
44955;SDS011;30686;52.512;-1.188;2022-12-20T08:13:05;5.75;;;1.10;;
44955;SDS011;30686;52.512;-1.188;2022-12-20T08:15:32;3.05;;;0.95;;
44955;SDS011;30686;52.512;-1.188;2022-12-20T08:17:59;2.05;;;0.82;;
44955;SDS011;30686;52.512;-1.188;2022-12-20T08:20:26;1.08;;;0.85;;
44955;SDS011;30686;52.512;-1.188;2022-12-20T08:22:52;3.90;;;1.02;;
44955;SDS011;30686;52.512;-1.188;2022-12-20T08:25:18;4.68;;;1.15;;
44955;SDS011;30686;52.512;-1.188;2022-12-20T08:27:45;3.80;;;0.90;;
44955;SDS011;30686;52.512;-1.188;2022-12-20T08:30:12;1.52;;;0.88;;
44955;SDS011;30686;52.512;-1.188;2022-12-20T08:32:38;6.10;;;1.20;;
44955;SDS011;30686;52.512;-1.188;2022-12-20T08:35:05;2.85;;;1.05;;
44955;SDS011;30686;52.512;-1.188;2022-12-20T08:37:31;4.95;;;1.25;;
44955;SDS011;30686;52.512;-1.188;2022-12-20T08:39:57;1.98;;;0.90;;
44955;SDS011;30686;52.512;-1.188;2022-12-20T08:42:25;1.92;;;1.08;;
44955;SDS011;30686;52.512;-1.188;2022-12-20T08:44:51;0.70;;;0.70;;
44955;SDS011;30686;52.512;-1.188;2022-12-20T08:47:18;3.28;;;0.85;;
44955;SDS011;30686;52.512;-1.188;2022-12-20T08:49:45;3.00;;;1.05;;
44955;SDS011;30686;52.512;-1.188;2022-12-20T08:52:15;2.17;;;0.90;;
44955;SDS011;30686;52.512;-1.188;2022-12-20T08:54:42;5.05;;;2.13;;
44955;SDS011;30686;52.512;-1.188;2022-12-20T08:57:08;0.93;;;0.70;;
44955;SDS011;30686;52.512;-1.188;2022-12-20T08:59:35;2.97;;;1.30;;
44955;SDS011;30686;52.512;-1.188;2022-12-20T09:02:01;3.15;;;1.35;;
44955;SDS011;30686;52.512;-1.188;2022-12-20T09:04:28;6.45;;;1.50;;
44955;SDS011;30686;52.512;-1.188;2022-12-20T09:06:54;6.20;;;1.17;;
44955;SDS011;30686;52.512;-1.188;2022-12-20T09:09:20;5.28;;;2.10;;
44955;SDS011;30686;52.512;-1.188;2022-12-20T09:11:46;2.45;;;0.95;;
44955;SDS011;30686;52.512;-1.188;2022-12-20T09:14:13;2.30;;;1.02;;
44955;SDS011;30686;52.512;-1.188;2022-12-20T09:16:39;4.40;;;2.35;;
44955;SDS011;30686;52.512;-1.188;2022-12-20T09:19:09;3.72;;;1.55;;
44955;SDS011;30686;52.512;-1.188;2022-12-20T09:21:36;2.92;;;0.73;;
44955;SDS011;30686;52.512;-1.188;2022-12-20T09:24:03;4.10;;;1.00;;
44955;SDS011;30686;52.512;-1.188;2022-12-20T09:26:30;6.53;;;1.25;;
44955;SDS011;30686;52.512;-1.188;2022-12-20T09:28:59;5.65;;;2.50;;
44955;SDS011;30686;52.512;-1.188;2022-12-20T09:31:29;11.00;;;1.90;;
44955;SDS011;30686;52.512;-1.188;2022-12-20T09:33:56;4.75;;;1.17;;
44955;SDS011;30686;52.512;-1.188;2022-12-20T09:36:23;7.40;;;1.05;;
44955;SDS011;30686;52.512;-1.188;2022-12-20T09:38:50;6.07;;;1.45;;
44955;SDS011;30686;52.512;-1.188;2022-12-20T09:41:20;3.08;;;1.25;;
44955;SDS011;30686;52.512;-1.188;2022-12-20T09:43:47;5.07;;;1.20;;
44955;SDS011;30686;52.512;-1.188;2022-12-20T09:46:14;8.63;;;1.70;;
44955;SDS011;30686;52.512;-1.188;2022-12-20T09:48:40;3.28;;;2.80;;
44955;SDS011;30686;52.512;-1.188;2022-12-20T09:56:31;2.72;;;1.60;;
44955;SDS011;30686;52.512;-1.188;2022-12-20T09:58:57;5.10;;;1.40;;
44955;SDS011;30686;52.512;-1.188;2022-12-20T10:01:24;4.18;;;1.25;;
44955;SDS011;30686;52.512;-1.188;2022-12-20T10:03:51;4.38;;;0.93;;
44955;SDS011;30686;52.512;-1.188;2022-12-20T10:09:02;12.95;;;1.95;;
44955;SDS011;30686;52.512;-1.188;2022-12-20T10:17:04;9.32;;;1.60;;
44955;SDS011;30686;52.512;-1.188;2022-12-20T10:24:32;5.82;;;1.40;;
44955;SDS011;30686;52.512;-1.188;2022-12-20T10:27:13;11.32;;;1.67;;
44955;SDS011;30686;52.512;-1.188;2022-12-20T10:29:39;5.90;;;1.52;;
44955;SDS011;30686;52.512;-1.188;2022-12-20T10:32:10;12.95;;;1.90;;
44955;SDS011;30686;52.512;-1.188;2022-12-20T10:34:37;6.32;;;2.00;;
44955;SDS011;30686;52.512;-1.188;2022-12-20T10:37:09;7.38;;;1.10;;
44955;SDS011;30686;52.512;-1.188;2022-12-20T10:39:40;13.98;;;2.03;;
44955;SDS011;30686;52.512;-1.188;2022-12-20T10:42:21;16.40;;;1.88;;
44955;SDS011;30686;52.512;-1.188;2022-12-20T10:44:50;8.75;;;1.80;;
44955;SDS011;30686;52.512;-1.188;2022-12-20T10:50:07;7.05;;;1.63;;
44955;SDS011;30686;52.512;-1.188;2022-12-20T10:52:40;5.95;;;1.25;;
44955;SDS011;30686;52.512;-1.188;2022-12-20T10:55:31;5.13;;;1.85;;
44955;SDS011;30686;52.512;-1.188;2022-12-20T10:58:20;7.15;;;1.63;;
44955;SDS011;30686;52.512;-1.188;2022-12-20T11:00:49;4.07;;;1.35;;
44955;SDS011;30686;52.512;-1.188;2022-12-20T11:03:20;11.85;;;1.83;;
44955;SDS011;30686;52.512;-1.188;2022-12-20T11:05:54;13.50;;;2.47;;
44955;SDS011;30686;52.512;-1.188;2022-12-20T11:08:22;7.88;;;2.10;;
44955;SDS011;30686;52.512;-1.188;2022-12-20T11:10:49;14.82;;;1.63;;
44955;SDS011;30686;52.512;-1.188;2022-12-20T11:13:20;12.18;;;2.75;;
44955;SDS011;30686;52.512;-1.188;2022-12-20T11:15:48;4.90;;;1.38;;
44955;SDS011;30686;52.512;-1.188;2022-12-20T11:18:31;17.63;;;2.08;;
44955;SDS011;30686;52.512;-1.188;2022-12-20T11:28:50;13.35;;;2.92;;
44955;SDS011;30686;52.512;-1.188;2022-12-20T11:32:22;7.40;;;2.03;;
44955;SDS011;30686;52.512;-1.188;2022-12-20T11:39:43;9.88;;;1.85;;
44955;SDS011;30686;52.512;-1.188;2022-12-20T11:53:01;11.93;;;2.28;;
44955;SDS011;30686;52.512;-1.188;2022-12-20T11:55:31;21.40;;;4.57;;
44955;SDS011;30686;52.512;-1.188;2022-12-20T12:00:35;10.93;;;2.08;;
44955;SDS011;30686;52.512;-1.188;2022-12-20T12:03:09;19.17;;;2.20;;
44955;SDS011;30686;52.512;-1.188;2022-12-20T12:05:40;10.38;;;2.30;;
44955;SDS011;30686;52.512;-1.188;2022-12-20T12:08:10;9.27;;;2.88;;
44955;SDS011;30686;52.512;-1.188;2022-12-20T12:10:40;21.45;;;2.80;;
44955;SDS011;30686;52.512;-1.188;2022-12-20T12:15:39;12.60;;;2.33;;
44955;SDS011;30686;52.512;-1.188;2022-12-20T12:18:16;10.00;;;2.22;;
44955;SDS011;30686;52.512;-1.188;2022-12-20T12:21:02;13.15;;;2.35;;
44955;SDS011;30686;52.512;-1.188;2022-12-20T12:26:04;19.75;;;2.35;;
44955;SDS011;30686;52.512;-1.188;2022-12-20T12:28:35;12.23;;;2.67;;
44955;SDS011;30686;52.512;-1.188;2022-12-20T12:36:44;13.50;;;2.72;;
44955;SDS011;30686;52.512;-1.188;2022-12-20T12:47:14;19.90;;;3.88;;
44955;SDS011;30686;52.512;-1.188;2022-12-20T12:49:41;12.98;;;2.72;;
44955;SDS011;30686;52.512;-1.188;2022-12-20T12:52:21;13.32;;;2.58;;
44955;SDS011;30686;52.512;-1.188;2022-12-20T12:54:51;15.60;;;2.05;;
44955;SDS011;30686;52.512;-1.188;2022-12-20T12:57:17;11.13;;;1.73;;
44955;SDS011;30686;52.512;-1.188;2022-12-20T12:59:48;9.68;;;2.70;;
44955;SDS011;30686;52.512;-1.188;2022-12-20T13:04:55;19.08;;;2.88;;
44955;SDS011;30686;52.512;-1.188;2022-12-20T13:13:00;10.70;;;3.05;;
44955;SDS011;30686;52.512;-1.188;2022-12-20T13:20:25;15.77;;;2.33;;
44955;SDS011;30686;52.512;-1.188;2022-12-20T13:25:37;7.82;;;2.15;;
44955;SDS011;30686;52.512;-1.188;2022-12-20T13:33:41;13.45;;;2.50;;
44955;SDS011;30686;52.512;-1.188;2022-12-20T13:41:01;18.23;;;2.08;;
44955;SDS011;30686;52.512;-1.188;2022-12-20T13:43:37;14.98;;;2.00;;
44955;SDS011;30686;52.512;-1.188;2022-12-20T13:48:41;9.10;;;2.33;;
44955;SDS011;30686;52.512;-1.188;2022-12-20T13:51:22;16.50;;;2.30;;
44955;SDS011;30686;52.512;-1.188;2022-12-20T13:53:50;15.13;;;2.30;;
44955;SDS011;30686;52.512;-1.188;2022-12-20T13:58:58;18.88;;;4.47;;
44955;SDS011;30686;52.512;-1.188;2022-12-20T14:01:32;18.10;;;3.83;;
44955;SDS011;30686;52.512;-1.188;2022-12-20T14:04:01;19.35;;;3.20;;
44955;SDS011;30686;52.512;-1.188;2022-12-20T14:06:32;17.38;;;2.60;;
44955;SDS011;30686;52.512;-1.188;2022-12-20T14:08:58;14.88;;;2.28;;
44955;SDS011;30686;52.512;-1.188;2022-12-20T14:11:25;5.93;;;1.90;;
44955;SDS011;30686;52.512;-1.188;2022-12-20T14:13:57;10.82;;;2.10;;
44955;SDS011;30686;52.512;-1.188;2022-12-20T14:16:27;14.15;;;3.97;;
44955;SDS011;30686;52.512;-1.188;2022-12-20T14:19:04;12.95;;;2.15;;
44955;SDS011;30686;52.512;-1.188;2022-12-20T14:21:33;10.25;;;2.88;;
44955;SDS011;30686;52.512;-1.188;2022-12-20T14:24:01;14.15;;;2.03;;
44955;SDS011;30686;52.512;-1.188;2022-12-20T14:26:28;14.98;;;2.28;;
44955;SDS011;30686;52.512;-1.188;2022-12-20T14:29:00;17.33;;;2.97;;
44955;SDS011;30686;52.512;-1.188;2022-12-20T14:34:01;15.38;;;2.63;;
44955;SDS011;30686;52.512;-1.188;2022-12-20T14:36:28;15.80;;;3.17;;
44955;SDS011;30686;52.512;-1.188;2022-12-20T14:39:35;15.77;;;2.40;;
44955;SDS011;30686;52.512;-1.188;2022-12-20T14:44:30;17.48;;;2.53;;
44955;SDS011;30686;52.512;-1.188;2022-12-20T14:46:59;15.32;;;2.80;;
44955;SDS011;30686;52.512;-1.188;2022-12-20T14:49:33;14.40;;;2.00;;
44955;SDS011;30686;52.512;-1.188;2022-12-20T14:54:54;17.35;;;3.33;;
44955;SDS011;30686;52.512;-1.188;2022-12-20T15:00:53;16.25;;;2.72;;
44955;SDS011;30686;52.512;-1.188;2022-12-20T15:08:10;11.50;;;2.33;;
44955;SDS011;30686;52.512;-1.188;2022-12-20T15:10:36;14.18;;;2.30;;
44955;SDS011;30686;52.512;-1.188;2022-12-20T15:13:13;13.30;;;2.40;;
44955;SDS011;30686;52.512;-1.188;2022-12-20T15:15:46;8.63;;;2.05;;
44955;SDS011;30686;52.512;-1.188;2022-12-20T15:18:17;11.10;;;2.90;;
44955;SDS011;30686;52.512;-1.188;2022-12-20T15:20:44;11.23;;;1.98;;
44955;SDS011;30686;52.512;-1.188;2022-12-20T15:23:12;10.60;;;2.08;;
44955;SDS011;30686;52.512;-1.188;2022-12-20T15:25:40;8.02;;;2.38;;
44955;SDS011;30686;52.512;-1.188;2022-12-20T15:28:14;25.25;;;3.05;;
44955;SDS011;30686;52.512;-1.188;2022-12-20T15:30:40;5.57;;;1.40;;
44955;SDS011;30686;52.512;-1.188;2022-12-20T15:33:08;23.20;;;2.20;;
44955;SDS011;30686;52.512;-1.188;2022-12-20T15:35:39;6.43;;;2.53;;
44955;SDS011;30686;52.512;-1.188;2022-12-20T15:38:08;14.73;;;2.55;;
44955;SDS011;30686;52.512;-1.188;2022-12-20T15:40:35;14.43;;;2.28;;
44955;SDS011;30686;52.512;-1.188;2022-12-20T15:43:01;12.95;;;2.55;;
44955;SDS011;30686;52.512;-1.188;2022-12-20T15:45:27;14.20;;;2.10;;
44955;SDS011;30686;52.512;-1.188;2022-12-20T15:47:54;10.65;;;2.42;;
44955;SDS011;30686;52.512;-1.188;2022-12-20T15:50:20;13.55;;;2.42;;
44955;SDS011;30686;52.512;-1.188;2022-12-20T15:52:46;13.50;;;3.03;;
44955;SDS011;30686;52.512;-1.188;2022-12-20T15:55:12;18.45;;;3.70;;
44955;SDS011;30686;52.512;-1.188;2022-12-20T15:57:39;18.58;;;3.03;;
44955;SDS011;30686;52.512;-1.188;2022-12-20T16:00:05;17.88;;;3.28;;
44955;SDS011;30686;52.512;-1.188;2022-12-20T16:02:31;18.90;;;2.58;;
44955;SDS011;30686;52.512;-1.188;2022-12-20T16:05:00;15.25;;;2.90;;
44955;SDS011;30686;52.512;-1.188;2022-12-20T16:07:27;16.52;;;2.38;;
44955;SDS011;30686;52.512;-1.188;2022-12-20T16:09:54;20.15;;;2.03;;
44955;SDS011;30686;52.512;-1.188;2022-12-20T16:12:24;17.73;;;4.05;;
44955;SDS011;30686;52.512;-1.188;2022-12-20T16:14:54;15.15;;;2.70;;
44955;SDS011;30686;52.512;-1.188;2022-12-20T16:17:23;17.52;;;2.97;;
44955;SDS011;30686;52.512;-1.188;2022-12-20T16:19:55;20.75;;;3.13;;
44955;SDS011;30686;52.512;-1.188;2022-12-20T16:22:22;16.08;;;2.67;;
44955;SDS011;30686;52.512;-1.188;2022-12-20T16:24:58;17.15;;;4.18;;
44955;SDS011;30686;52.512;-1.188;2022-12-20T16:27:26;9.50;;;2.42;;
44955;SDS011;30686;52.512;-1.188;2022-12-20T16:29:53;11.40;;;1.95;;
44955;SDS011;30686;52.512;-1.188;2022-12-20T16:32:22;13.35;;;2.97;;
44955;SDS011;30686;52.512;-1.188;2022-12-20T16:34:52;11.23;;;2.58;;
44955;SDS011;30686;52.512;-1.188;2022-12-20T16:37:24;16.83;;;2.45;;
44955;SDS011;30686;52.512;-1.188;2022-12-20T16:39:54;18.73;;;3.78;;
44955;SDS011;30686;52.512;-1.188;2022-12-20T16:42:20;12.05;;;2.20;;
44955;SDS011;30686;52.512;-1.188;2022-12-20T16:44:52;10.90;;;2.53;;
44955;SDS011;30686;52.512;-1.188;2022-12-20T16:47:21;16.30;;;2.65;;
44955;SDS011;30686;52.512;-1.188;2022-12-20T16:49:48;15.68;;;3.13;;
44955;SDS011;30686;52.512;-1.188;2022-12-20T16:52:15;11.73;;;3.05;;
44955;SDS011;30686;52.512;-1.188;2022-12-20T16:54:54;20.20;;;3.20;;
44955;SDS011;30686;52.512;-1.188;2022-12-20T16:57:31;12.65;;;3.47;;